sensor_id;sensor_type;location;lat;lon;timestamp;P1;P4;P2;P0;N10;N4;N25;N1;N05;TS
76200;SPS30;64981;52.930;9.266;2023-12-20T00:01:29;4.08;3.71;2.98;1.97;15.79;15.74;15.55;14.65;11.27;0.77
76200;SPS30;64981;52.930;9.266;2023-12-20T00:03:54;3.67;3.34;2.68;1.77;14.13;14.08;13.91;13.09;10.05;0.78
76200;SPS30;64981;52.930;9.266;2023-12-20T00:06:20;3.66;3.32;2.64;1.70;13.61;13.56;13.39;12.55;9.53;0.80
76200;SPS30;64981;52.930;9.266;2023-12-20T00:08:45;3.85;3.49;2.76;1.76;14.11;14.06;13.87;12.98;9.81;0.79
76200;SPS30;64981;52.930;9.266;2023-12-20T00:11:11;4.34;3.91;3.05;1.89;15.14;15.08;14.87;13.82;10.28;0.82
76200;SPS30;64981;52.930;9.266;2023-12-20T00:13:36;4.42;3.96;3.05;1.82;14.54;14.47;14.24;13.12;9.55;0.85
76200;SPS30;64981;52.930;9.266;2023-12-20T00:16:02;4.58;4.10;3.13;1.84;14.74;14.67;14.43;13.25;9.56;0.85
76200;SPS30;64981;52.930;9.266;2023-12-20T00:18:28;4.66;4.16;3.16;1.82;14.61;14.54;14.28;13.07;9.33;0.86
76200;SPS30;64981;52.930;9.266;2023-12-20T00:20:53;4.84;4.32;3.27;1.87;15.01;14.94;14.67;13.40;9.52;0.87
76200;SPS30;64981;52.930;9.266;2023-12-20T00:23:19;4.87;4.35;3.31;1.93;15.46;15.39;15.13;13.87;9.95;0.86
76200;SPS30;64981;52.930;9.266;2023-12-20T00:25:45;4.27;3.83;2.94;1.76;14.08;14.01;13.79;12.71;9.26;0.84
76200;SPS30;64981;52.930;9.266;2023-12-20T00:28:10;4.28;3.83;2.93;1.73;13.82;13.76;13.53;12.44;8.99;0.86
76200;SPS30;64981;52.930;9.266;2023-12-20T00:30:36;4.38;3.91;2.97;1.72;13.74;13.68;13.44;12.30;8.78;0.88
76200;SPS30;64981;52.930;9.266;2023-12-20T00:33:01;4.89;4.37;3.33;1.95;15.60;15.53;15.27;14.00;10.07;0.88
76200;SPS30;64981;52.930;9.266;2023-12-20T00:35:27;5.00;4.47;3.41;2.00;16.04;15.97;15.70;14.41;10.39;0.88
76200;SPS30;64981;52.930;9.266;2023-12-20T00:37:53;5.19;4.65;3.57;2.13;17.03;16.96;16.68;15.37;11.17;0.87
76200;SPS30;64981;52.930;9.266;2023-12-20T00:40:19;4.67;4.20;3.26;1.99;15.93;15.86;15.63;14.47;10.68;0.85
76200;SPS30;64981;52.930;9.266;2023-12-20T00:42:45;4.19;3.79;3.00;1.91;15.27;15.21;15.01;14.03;10.59;0.80
76200;SPS30;64981;52.930;9.266;2023-12-20T00:45:12;4.11;3.70;2.89;1.79;14.31;14.25;14.04;13.04;9.69;0.81
76200;SPS30;64981;52.930;9.266;2023-12-20T00:47:38;4.59;4.15;3.26;2.05;16.38;16.32;16.09;15.00;11.24;0.78
76200;SPS30;64981;52.930;9.266;2023-12-20T00:50:03;4.08;3.71;2.97;1.94;15.54;15.49;15.30;14.38;11.00;0.76
76200;SPS30;64981;52.930;9.266;2023-12-20T00:52:29;3.94;3.60;2.90;1.94;15.52;15.47;15.30;14.44;11.15;0.74
76200;SPS30;64981;52.930;9.266;2023-12-20T00:54:55;4.52;4.12;3.33;2.23;17.84;17.79;17.59;16.60;12.84;0.76
76200;SPS30;64981;52.930;9.266;2023-12-20T00:57:20;4.24;3.85;3.07;2.00;16.00;15.94;15.74;14.78;11.27;0.78
76200;SPS30;64981;52.930;9.266;2023-12-20T00:59:46;4.30;3.89;3.06;1.93;15.44;15.38;15.17;14.15;10.63;0.80
76200;SPS30;64981;52.930;9.266;2023-12-20T01:02:12;4.79;4.31;3.34;2.03;16.24;16.17;15.92;14.74;10.84;0.82
76200;SPS30;64981;52.930;9.266;2023-12-20T01:04:37;4.31;3.86;2.98;1.79;14.33;14.27;14.04;12.96;9.48;0.83
76200;SPS30;64981;52.930;9.266;2023-12-20T01:07:03;4.80;4.30;3.32;1.99;15.94;15.88;15.63;14.42;10.54;0.82
76200;SPS30;64981;52.930;9.266;2023-12-20T01:09:28;4.38;3.94;3.04;1.84;14.70;14.64;14.41;13.32;9.76;0.83
76200;SPS30;64981;52.930;9.266;2023-12-20T01:11:54;4.54;4.06;3.09;1.80;14.41;14.34;14.09;12.92;9.27;0.86
76200;SPS30;64981;52.930;9.266;2023-12-20T01:14:20;5.46;4.86;3.66;2.08;16.62;16.54;16.24;14.79;10.43;0.88
76200;SPS30;64981;52.930;9.266;2023-12-20T01:16:45;4.61;4.12;3.14;1.82;14.60;14.54;14.29;13.09;9.38;0.87
76200;SPS30;64981;52.930;9.266;2023-12-20T01:19:11;4.27;3.81;2.88;1.64;13.14;13.07;12.84;11.71;8.29;0.89
76200;SPS30;64981;52.930;9.266;2023-12-20T01:21:38;5.35;4.74;3.52;1.91;15.34;15.25;14.95;13.47;9.24;0.92
76200;SPS30;64981;52.930;9.266;2023-12-20T01:24:03;5.14;4.57;3.43;1.91;15.31;15.23;14.94;13.56;9.46;0.90
76200;SPS30;64981;52.930;9.266;2023-12-20T01:26:29;4.61;4.11;3.12;1.81;14.46;14.39;14.14;12.93;9.24;0.87
76200;SPS30;64981;52.930;9.266;2023-12-20T01:28:55;4.61;4.13;3.17;1.88;15.06;15.00;14.75;13.58;9.86;0.85
76200;SPS30;64981;52.930;9.266;2023-12-20T01:31:20;3.80;3.42;2.66;1.64;13.13;13.07;12.88;11.95;8.86;0.81
76200;SPS30;64981;52.930;9.266;2023-12-20T01:33:46;4.15;3.73;2.89;1.76;14.09;14.03;13.82;12.79;9.42;0.81
76200;SPS30;64981;52.930;9.266;2023-12-20T01:36:11;4.56;4.09;3.15;1.88;15.06;14.99;14.75;13.60;9.91;0.83
76200;SPS30;64981;52.930;9.266;2023-12-20T01:38:37;4.60;4.14;3.23;1.99;15.93;15.86;15.63;14.51;10.77;0.82
76200;SPS30;64981;52.930;9.266;2023-12-20T01:41:03;4.18;3.76;2.93;1.81;14.51;14.45;14.24;13.23;9.82;0.81
76200;SPS30;64981;52.930;9.266;2023-12-20T01:43:29;4.42;3.96;3.05;1.83;14.62;14.55;14.32;13.21;9.63;0.83
76200;SPS30;64981;52.930;9.266;2023-12-20T01:45:55;4.67;4.17;3.19;1.87;14.94;14.87;14.62;13.42;9.66;0.85
76200;SPS30;64981;52.930;9.266;2023-12-20T01:48:22;4.18;3.73;2.83;1.62;12.99;12.93;12.70;11.60;8.25;0.87
76200;SPS30;64981;52.930;9.266;2023-12-20T01:50:51;4.41;3.93;2.97;1.69;13.50;13.43;13.19;12.02;8.49;0.87
76200;SPS30;64981;52.930;9.266;2023-12-20T01:53:17;4.89;4.36;3.30;1.89;15.14;15.06;14.80;13.51;9.60;0.88
76200;SPS30;64981;52.930;9.266;2023-12-20T01:55:46;4.49;4.01;3.04;1.74;13.97;13.90;13.66;12.48;8.87;0.87
76200;SPS30;64981;52.930;9.266;2023-12-20T01:58:15;4.90;4.38;3.33;1.94;15.50;15.43;15.16;13.89;9.95;0.86
76200;SPS30;64981;52.930;9.266;2023-12-20T02:00:42;4.74;4.24;3.24;1.90;15.21;15.14;14.89;13.67;9.86;0.85
76200;SPS30;64981;52.930;9.266;2023-12-20T02:03:08;5.49;4.90;3.72;2.14;17.16;17.08;16.78;15.34;10.93;0.86
76200;SPS30;64981;52.930;9.266;2023-12-20T02:05:34;4.77;4.26;3.23;1.87;14.94;14.87;14.61;13.37;9.54;0.86
76200;SPS30;64981;52.930;9.266;2023-12-20T02:08:02;4.81;4.30;3.29;1.94;15.52;15.45;15.19;13.96;10.08;0.84
76200;SPS30;64981;52.930;9.266;2023-12-20T02:10:28;4.87;4.37;3.38;2.03;16.28;16.21;15.96;14.74;10.79;0.83
76200;SPS30;64981;52.930;9.266;2023-12-20T02:12:54;4.60;4.16;3.28;2.08;16.62;16.56;16.33;15.25;11.48;0.80
76200;SPS30;64981;52.930;9.266;2023-12-20T02:15:20;3.74;3.41;2.73;1.80;14.37;14.32;14.15;13.31;10.21;0.77
76200;SPS30;64981;52.930;9.266;2023-12-20T02:17:46;4.21;3.82;3.05;1.98;15.82;15.76;15.56;14.60;11.12;0.78
76200;SPS30;64981;52.930;9.266;2023-12-20T02:20:13;4.90;4.42;3.45;2.14;17.15;17.08;16.84;15.65;11.65;0.82
76200;SPS30;64981;52.930;9.266;2023-12-20T02:22:39;4.62;4.16;3.24;2.00;15.97;15.91;15.68;14.55;10.79;0.83
76200;SPS30;64981;52.930;9.266;2023-12-20T02:25:04;4.32;3.89;3.03;1.86;14.90;14.84;14.63;13.57;10.05;0.83
76200;SPS30;64981;52.930;9.266;2023-12-20T02:27:30;4.37;3.95;3.11;1.96;15.71;15.66;15.44;14.41;10.83;0.80
76200;SPS30;64981;52.930;9.266;2023-12-20T02:29:56;4.49;4.06;3.21;2.04;16.33;16.27;16.05;15.00;11.32;0.81
76200;SPS30;64981;52.930;9.266;2023-12-20T02:32:21;4.36;3.94;3.09;1.94;15.53;15.47;15.26;14.22;10.65;0.81
76200;SPS30;64981;52.930;9.266;2023-12-20T02:34:51;4.51;4.10;3.27;2.14;17.11;17.06;16.85;15.83;12.10;0.79
76200;SPS30;64981;52.930;9.266;2023-12-20T02:37:17;4.31;3.90;3.08;1.95;15.61;15.55;15.34;14.33;10.79;0.81
76200;SPS30;64981;52.930;9.266;2023-12-20T02:39:42;3.88;3.52;2.80;1.81;14.51;14.46;14.27;13.39;10.19;0.79
76200;SPS30;64981;52.930;9.266;2023-12-20T02:42:08;4.07;3.68;2.92;1.87;14.95;14.89;14.70;13.75;10.41;0.81
76200;SPS30;64981;52.930;9.266;2023-12-20T02:44:33;4.28;3.88;3.08;1.99;15.95;15.89;15.69;14.71;11.18;0.80
76200;SPS30;64981;52.930;9.266;2023-12-20T02:46:59;4.68;4.24;3.35;2.14;17.09;17.03;16.80;15.71;11.86;0.82
76200;SPS30;64981;52.930;9.266;2023-12-20T02:49:25;4.07;3.70;2.97;1.96;15.64;15.59;15.40;14.50;11.13;0.79
76200;SPS30;64981;52.930;9.266;2023-12-20T02:51:50;4.60;4.19;3.37;2.24;17.88;17.82;17.62;16.60;12.78;0.78
76200;SPS30;64981;52.930;9.266;2023-12-20T02:54:16;4.19;3.81;3.04;1.98;15.85;15.79;15.60;14.65;11.18;0.79
76200;SPS30;64981;52.930;9.266;2023-12-20T02:56:41;4.41;4.00;3.18;2.06;16.47;16.41;16.20;15.19;11.55;0.78
76200;SPS30;64981;52.930;9.266;2023-12-20T02:59:07;4.71;4.29;3.45;2.29;18.30;18.24;18.03;16.99;13.08;0.77
76200;SPS30;64981;52.930;9.266;2023-12-20T03:01:33;4.97;4.53;3.65;2.43;19.42;19.35;19.13;18.04;13.90;0.77
76200;SPS30;64981;52.930;9.266;2023-12-20T03:03:59;4.55;4.16;3.38;2.30;18.39;18.34;18.14;17.17;13.36;0.75
76200;SPS30;64981;52.930;9.266;2023-12-20T03:06:25;4.45;4.09;3.38;2.37;18.93;18.88;18.69;17.80;14.04;0.72
76200;SPS30;64981;52.930;9.266;2023-12-20T03:08:51;4.47;4.11;3.40;2.38;19.04;18.99;18.81;17.91;14.13;0.72
76200;SPS30;64981;52.930;9.266;2023-12-20T03:11:17;4.75;4.35;3.56;2.44;19.49;19.43;19.23;18.24;14.25;0.74
76200;SPS30;64981;52.930;9.266;2023-12-20T03:13:42;4.94;4.50;3.63;2.42;19.40;19.33;19.11;18.03;13.92;0.77
76200;SPS30;64981;52.930;9.266;2023-12-20T03:16:09;4.61;4.23;3.46;2.38;19.07;19.02;18.82;17.87;13.99;0.75
76200;SPS30;64981;52.930;9.266;2023-12-20T03:18:35;4.11;3.79;3.17;2.26;18.09;18.05;17.89;17.09;13.60;0.72
76200;SPS30;64981;52.930;9.266;2023-12-20T03:21:01;4.02;3.71;3.09;2.20;17.56;17.52;17.36;16.58;13.17;0.71
76200;SPS30;64981;52.930;9.266;2023-12-20T03:23:27;3.86;3.55;2.92;2.04;16.34;16.30;16.14;15.36;12.10;0.73
76200;SPS30;64981;52.930;9.266;2023-12-20T03:25:52;3.84;3.53;2.91;2.03;16.24;16.20;16.04;15.26;12.03;0.74
76200;SPS30;64981;52.930;9.266;2023-12-20T03:28:18;3.84;3.53;2.91;2.02;16.17;16.13;15.97;15.18;11.94;0.74
76200;SPS30;64981;52.930;9.266;2023-12-20T03:30:44;4.51;4.13;3.37;2.30;18.42;18.37;18.18;17.23;13.45;0.75
76200;SPS30;64981;52.930;9.266;2023-12-20T03:33:10;4.18;3.82;3.10;2.10;16.78;16.73;16.54;15.65;12.15;0.78
76200;SPS30;64981;52.930;9.266;2023-12-20T03:35:36;4.09;3.73;3.00;1.99;15.94;15.89;15.70;14.80;11.40;0.78
76200;SPS30;64981;52.930;9.266;2023-12-20T03:38:02;4.40;4.01;3.22;2.14;17.11;17.06;16.86;15.88;12.23;0.79
76200;SPS30;64981;52.930;9.266;2023-12-20T03:40:27;4.35;3.97;3.22;2.17;17.34;17.29;17.09;16.16;12.53;0.76
76200;SPS30;64981;52.930;9.266;2023-12-20T03:42:53;4.35;3.97;3.21;2.16;17.25;17.20;17.00;16.06;12.43;0.76
76200;SPS30;64981;52.930;9.266;2023-12-20T03:45:18;4.45;4.06;3.28;2.20;17.61;17.55;17.35;16.39;12.68;0.77
76200;SPS30;64981;52.930;9.266;2023-12-20T03:47:44;4.04;3.68;2.94;1.92;15.40;15.35;15.16;14.25;10.90;0.79
76200;SPS30;64981;52.930;9.266;2023-12-20T03:50:10;4.31;3.91;3.11;2.01;16.11;16.05;15.85;14.86;11.30;0.80
76200;SPS30;64981;52.930;9.266;2023-12-20T03:52:35;5.22;4.74;3.77;2.44;19.49;19.42;19.18;17.98;13.67;0.81
76200;SPS30;64981;52.930;9.266;2023-12-20T03:55:01;5.08;4.60;3.64;2.32;18.58;18.51;18.26;17.08;12.90;0.82
76200;SPS30;64981;52.930;9.266;2023-12-20T03:57:26;4.55;4.11;3.25;2.06;16.51;16.45;16.23;15.16;11.43;0.82
76200;SPS30;64981;52.930;9.266;2023-12-20T03:59:52;4.36;3.96;3.16;2.06;16.50;16.45;16.24;15.26;11.65;0.80
76200;SPS30;64981;52.930;9.266;2023-12-20T04:02:17;4.80;4.35;3.46;2.24;17.92;17.86;17.63;16.53;12.57;0.79
76200;SPS30;64981;52.930;9.266;2023-12-20T04:04:43;4.93;4.48;3.59;2.36;18.86;18.80;18.57;17.47;13.38;0.78
76200;SPS30;64981;52.930;9.266;2023-12-20T04:07:09;4.73;4.31;3.48;2.33;18.61;18.55;18.34;17.31;13.37;0.77
76200;SPS30;64981;52.930;9.266;2023-12-20T04:09:34;4.69;4.26;3.40;2.22;17.73;17.67;17.45;16.39;12.51;0.78
76200;SPS30;64981;52.930;9.266;2023-12-20T04:12:00;4.34;3.97;3.23;2.20;17.58;17.53;17.34;16.42;12.79;0.75
76200;SPS30;64981;52.930;9.266;2023-12-20T04:14:26;4.77;4.38;3.60;2.49;19.92;19.86;19.66;18.68;14.66;0.73
76200;SPS30;64981;52.930;9.266;2023-12-20T04:16:52;5.03;4.63;3.84;2.71;21.67;21.61;21.41;20.41;16.15;0.71
76200;SPS30;64981;52.930;9.266;2023-12-20T04:19:19;4.56;4.24;3.59;2.65;21.20;21.16;20.99;20.17;16.25;0.68
76200;SPS30;64981;52.930;9.266;2023-12-20T04:21:44;4.51;4.24;3.71;2.89;23.11;23.07;22.93;22.24;18.28;0.64
76200;SPS30;64981;52.930;9.266;2023-12-20T04:24:10;4.26;3.99;3.47;2.67;21.36;21.32;21.18;20.50;16.78;0.63
76200;SPS30;64981;52.930;9.266;2023-12-20T04:26:35;4.98;4.69;4.11;3.20;25.61;25.56;25.41;24.64;20.27;0.63
76200;SPS30;64981;52.930;9.266;2023-12-20T04:29:01;4.43;4.21;3.76;3.04;24.26;24.23;24.11;23.51;19.57;0.61
76200;SPS30;64981;52.930;9.266;2023-12-20T04:31:27;4.60;4.39;3.96;3.24;25.90;25.87;25.75;25.17;21.04;0.61
76200;SPS30;64981;52.930;9.266;2023-12-20T04:33:52;4.30;4.11;3.73;3.10;24.73;24.70;24.60;24.09;20.21;0.59
76200;SPS30;64981;52.930;9.266;2023-12-20T04:36:18;4.65;4.42;3.95;3.19;25.47;25.43;25.31;24.68;20.53;0.61
76200;SPS30;64981;52.930;9.266;2023-12-20T04:38:43;5.26;4.94;4.30;3.33;26.62;26.57;26.41;25.58;20.98;0.64
76200;SPS30;64981;52.930;9.266;2023-12-20T04:41:09;4.81;4.51;3.91;2.99;23.93;23.88;23.73;22.94;18.75;0.64
76200;SPS30;64981;52.930;9.266;2023-12-20T04:43:35;5.27;4.94;4.29;3.29;26.27;26.22;26.05;25.20;20.60;0.65
76200;SPS30;64981;52.930;9.266;2023-12-20T04:46:00;4.92;4.63;4.04;3.14;25.12;25.08;24.93;24.16;19.85;0.65
76200;SPS30;64981;52.930;9.266;2023-12-20T04:48:26;5.02;4.74;4.19;3.32;26.52;26.47;26.33;25.60;21.16;0.64
76200;SPS30;64981;52.930;9.266;2023-12-20T04:50:51;4.72;4.46;3.95;3.14;25.10;25.06;24.93;24.25;20.07;0.63
76200;SPS30;64981;52.930;9.266;2023-12-20T04:53:17;4.65;4.39;3.88;3.07;24.55;24.51;24.37;23.70;19.59;0.64
76200;SPS30;64981;52.930;9.266;2023-12-20T04:55:42;5.01;4.70;4.07;3.12;24.92;24.87;24.71;23.90;19.53;0.66
76200;SPS30;64981;52.930;9.266;2023-12-20T04:58:08;5.03;4.74;4.17;3.28;26.19;26.15;26.00;25.25;20.82;0.61
76200;SPS30;64981;52.930;9.266;2023-12-20T05:00:34;5.24;4.96;4.41;3.53;28.19;28.15;28.00;27.26;22.61;0.60
76200;SPS30;64981;52.930;9.266;2023-12-20T05:02:59;5.13;4.83;4.25;3.33;26.64;26.59;26.44;25.67;21.15;0.61
76200;SPS30;64981;52.930;9.266;2023-12-20T05:05:25;4.58;4.35;3.90;3.16;25.27;25.24;25.12;24.51;20.42;0.58
76200;SPS30;64981;52.930;9.266;2023-12-20T05:07:50;4.62;4.40;3.96;3.23;25.81;25.78;25.66;25.06;20.92;0.60
76200;SPS30;64981;52.930;9.266;2023-12-20T05:10:16;4.96;4.71;4.22;3.42;27.33;27.30;27.16;26.50;22.07;0.61
76200;SPS30;64981;52.930;9.266;2023-12-20T05:12:42;4.84;4.60;4.12;3.35;26.76;26.72;26.60;25.96;21.64;0.61
76200;SPS30;64981;52.930;9.266;2023-12-20T05:15:08;5.06;4.83;4.37;3.59;28.70;28.67;28.55;27.91;23.36;0.60
76200;SPS30;64981;52.930;9.266;2023-12-20T05:17:33;4.66;4.44;4.01;3.28;26.23;26.20;26.09;25.49;21.31;0.60
76200;SPS30;64981;52.930;9.266;2023-12-20T05:19:59;5.33;5.04;4.45;3.53;28.22;28.17;28.02;27.24;22.53;0.63
76200;SPS30;64981;52.930;9.266;2023-12-20T05:22:24;5.35;5.07;4.51;3.61;28.87;28.82;28.68;27.93;23.18;0.61
76200;SPS30;64981;52.930;9.266;2023-12-20T05:24:50;4.93;4.66;4.14;3.30;26.38;26.34;26.21;25.51;21.14;0.61
76200;SPS30;64981;52.930;9.266;2023-12-20T05:27:16;4.45;4.23;3.79;3.06;24.49;24.45;24.34;23.74;19.77;0.61
76200;SPS30;64981;52.930;9.266;2023-12-20T05:29:41;4.81;4.55;4.03;3.21;25.69;25.65;25.52;24.83;20.57;0.61
76200;SPS30;64981;52.930;9.266;2023-12-20T05:32:07;4.75;4.48;3.94;3.10;24.80;24.76;24.62;23.91;19.73;0.61
76200;SPS30;64981;52.930;9.266;2023-12-20T05:34:32;6.11;5.69;4.83;3.57;28.57;28.51;28.29;27.19;21.93;0.67
76200;SPS30;64981;52.930;9.266;2023-12-20T05:36:58;5.92;5.48;4.58;3.29;26.34;26.27;26.04;24.91;19.87;0.70
76200;SPS30;64981;52.930;9.266;2023-12-20T05:39:23;5.91;5.47;4.61;3.35;26.80;26.74;26.51;25.42;20.36;0.70
76200;SPS30;64981;52.930;9.266;2023-12-20T05:41:49;5.55;5.12;4.27;3.04;24.32;24.26;24.04;22.96;18.25;0.72
76200;SPS30;64981;52.930;9.266;2023-12-20T05:44:15;6.07;5.61;4.70;3.38;27.01;26.95;26.71;25.55;20.38;0.71
76200;SPS30;64981;52.930;9.266;2023-12-20T05:46:40;6.15;5.69;4.78;3.45;27.62;27.55;27.32;26.16;20.91;0.69
76200;SPS30;64981;52.930;9.266;2023-12-20T05:49:06;5.63;5.25;4.49;3.37;26.95;26.89;26.70;25.73;20.86;0.67
76200;SPS30;64981;52.930;9.266;2023-12-20T05:51:32;5.53;5.14;4.37;3.24;25.92;25.86;25.66;24.68;19.92;0.69
76200;SPS30;64981;52.930;9.266;2023-12-20T05:53:58;5.76;5.36;4.56;3.39;27.07;27.01;26.80;25.78;20.82;0.69
76200;SPS30;64981;52.930;9.266;2023-12-20T05:56:24;6.08;5.66;4.82;3.59;28.67;28.61;28.39;27.32;22.08;0.68
76200;SPS30;64981;52.930;9.266;2023-12-20T05:58:49;5.92;5.49;4.63;3.38;27.02;26.96;26.74;25.65;20.58;0.70
76200;SPS30;64981;52.930;9.266;2023-12-20T06:01:15;5.76;5.35;4.53;3.33;26.62;26.56;26.35;25.31;20.37;0.69
76200;SPS30;64981;52.930;9.266;2023-12-20T06:03:43;5.69;5.31;4.55;3.42;27.33;27.27;27.08;26.10;21.17;0.68
76200;SPS30;64981;52.930;9.266;2023-12-20T06:06:09;5.44;5.05;4.28;3.15;25.18;25.13;24.93;23.94;19.27;0.68
76200;SPS30;64981;52.930;9.266;2023-12-20T06:08:35;5.74;5.34;4.54;3.36;26.86;26.80;26.59;25.57;20.63;0.67
76200;SPS30;64981;52.930;9.266;2023-12-20T06:11:01;5.62;5.22;4.42;3.25;26.01;25.95;25.75;24.73;19.91;0.67
76200;SPS30;64981;52.930;9.266;2023-12-20T06:13:27;6.04;5.63;4.81;3.60;28.75;28.69;28.48;27.43;22.21;0.66
76200;SPS30;64981;52.930;9.266;2023-12-20T06:15:54;6.24;5.78;4.87;3.54;28.29;28.22;27.98;26.82;21.48;0.70
76200;SPS30;64981;52.930;9.266;2023-12-20T06:18:20;6.52;5.99;4.92;3.42;27.38;27.31;27.03;25.70;20.21;0.74
76200;SPS30;64981;52.930;9.266;2023-12-20T06:20:46;6.85;6.26;5.10;3.46;27.69;27.60;27.30;25.85;20.12;0.75
76200;SPS30;64981;52.930;9.266;2023-12-20T06:23:12;6.31;5.79;4.77;3.32;26.53;26.45;26.19;24.91;19.59;0.74
76200;SPS30;64981;52.930;9.266;2023-12-20T06:25:37;6.14;5.65;4.68;3.29;26.33;26.26;26.01;24.79;19.59;0.74
76200;SPS30;64981;52.930;9.266;2023-12-20T06:28:03;5.77;5.31;4.40;3.10;24.81;24.74;24.51;23.36;18.48;0.74
76200;SPS30;64981;52.930;9.266;2023-12-20T06:30:29;6.68;6.13;5.03;3.48;27.84;27.76;27.48;26.10;20.49;0.75
76200;SPS30;64981;52.930;9.266;2023-12-20T06:32:54;6.42;5.87;4.79;3.27;26.12;26.04;25.76;24.40;19.03;0.76
76200;SPS30;64981;52.930;9.266;2023-12-20T06:35:22;6.46;5.92;4.85;3.34;26.73;26.65;26.38;25.04;19.62;0.75
76200;SPS30;64981;52.930;9.266;2023-12-20T06:37:48;6.35;5.81;4.75;3.26;26.05;25.98;25.70;24.38;19.05;0.74
76200;SPS30;64981;52.930;9.266;2023-12-20T06:40:13;7.41;6.73;5.38;3.51;28.11;28.01;27.67;25.99;19.86;0.77
76200;SPS30;64981;52.930;9.266;2023-12-20T06:42:39;8.10;7.35;5.85;3.80;30.38;30.27;29.89;28.04;21.35;0.77
76200;SPS30;64981;52.930;9.266;2023-12-20T06:45:04;7.49;6.86;5.60;3.83;30.65;30.56;30.24;28.67;22.39;0.74
76200;SPS30;64981;52.930;9.266;2023-12-20T06:47:30;6.99;6.45;5.39;3.85;30.81;30.73;30.46;29.11;23.16;0.71
76200;SPS30;64981;52.930;9.266;2023-12-20T06:49:56;6.54;6.06;5.11;3.73;29.82;29.75;29.51;28.30;22.70;0.70
76200;SPS30;64981;52.930;9.266;2023-12-20T06:52:21;6.76;6.30;5.37;4.01;32.07;32.00;31.76;30.58;24.75;0.67
76200;SPS30;64981;52.930;9.266;2023-12-20T06:54:47;6.88;6.39;5.40;3.95;31.62;31.54;31.29;30.03;24.13;0.69
76200;SPS30;64981;52.930;9.266;2023-12-20T06:57:12;6.98;6.46;5.44;3.95;31.54;31.47;31.20;29.90;23.93;0.71
76200;SPS30;64981;52.930;9.266;2023-12-20T06:59:40;6.92;6.43;5.47;4.06;32.45;32.38;32.13;30.90;24.94;0.68
76200;SPS30;64981;52.930;9.266;2023-12-20T07:02:06;6.99;6.51;5.54;4.12;32.95;32.88;32.63;31.40;25.37;0.69
76200;SPS30;64981;52.930;9.266;2023-12-20T07:04:33;6.77;6.28;5.30;3.88;31.02;30.95;30.70;29.46;23.65;0.70
76200;SPS30;64981;52.930;9.266;2023-12-20T07:06:58;6.79;6.27;5.25;3.77;30.13;30.06;29.79;28.50;22.72;0.71
76200;SPS30;64981;52.930;9.266;2023-12-20T07:09:25;7.24;6.64;5.45;3.77;30.13;30.05;29.74;28.25;22.16;0.73
76200;SPS30;64981;52.930;9.266;2023-12-20T07:11:52;7.53;6.92;5.72;4.00;32.00;31.91;31.60;30.09;23.73;0.71
76200;SPS30;64981;52.930;9.266;2023-12-20T07:14:18;7.59;7.01;5.86;4.20;33.60;33.51;33.22;31.76;25.30;0.69
76200;SPS30;64981;52.930;9.266;2023-12-20T07:16:43;7.12;6.64;5.66;4.23;33.78;33.71;33.46;32.21;26.06;0.68
76200;SPS30;64981;52.930;9.266;2023-12-20T07:19:09;7.09;6.60;5.63;4.20;33.57;33.49;33.24;32.00;25.88;0.69
76200;SPS30;64981;52.930;9.266;2023-12-20T07:21:35;6.91;6.47;5.59;4.26;34.08;34.02;33.79;32.65;26.63;0.70
76200;SPS30;64981;52.930;9.266;2023-12-20T07:24:00;7.96;7.41;6.31;4.69;37.45;37.37;37.09;35.68;28.82;0.70
76200;SPS30;64981;52.930;9.266;2023-12-20T07:26:27;7.84;7.30;6.22;4.63;37.02;36.94;36.67;35.29;28.53;0.69
76200;SPS30;64981;52.930;9.266;2023-12-20T07:28:53;7.66;7.14;6.10;4.55;36.40;36.32;36.05;34.72;28.10;0.69
76200;SPS30;64981;52.930;9.266;2023-12-20T07:31:18;9.33;8.86;7.92;6.40;51.18;51.11;50.86;49.60;41.28;0.61
76200;SPS30;64981;52.930;9.266;2023-12-20T07:33:44;7.16;6.83;6.16;5.05;40.31;40.26;40.08;39.17;32.74;0.61
76200;SPS30;64981;52.930;9.266;2023-12-20T07:36:09;7.11;6.73;5.96;4.74;37.91;37.86;37.65;36.64;30.33;0.64
76200;SPS30;64981;52.930;9.266;2023-12-20T07:38:35;7.19;6.71;5.76;4.34;34.65;34.58;34.34;33.11;26.88;0.67
76200;SPS30;64981;52.930;9.266;2023-12-20T07:41:01;8.53;7.99;6.93;5.33;42.56;42.49;42.21;40.83;33.39;0.65
76200;SPS30;64981;52.930;9.266;2023-12-20T07:43:26;8.52;8.16;7.44;6.21;49.59;49.53;49.34;48.35;40.64;0.61
76200;SPS30;64981;52.930;9.266;2023-12-20T07:45:52;6.51;6.16;5.46;4.34;34.71;34.66;34.48;33.55;27.78;0.65
76200;SPS30;64981;52.930;9.266;2023-12-20T07:48:17;6.94;6.50;5.64;4.32;34.54;34.48;34.25;33.13;27.08;0.68
76200;SPS30;64981;52.930;9.266;2023-12-20T07:50:43;7.18;6.68;5.70;4.24;33.87;33.79;33.54;32.27;26.08;0.69
76200;SPS30;64981;52.930;9.266;2023-12-20T07:53:08;6.85;6.41;5.54;4.22;33.70;33.63;33.40;32.27;26.31;0.65
76200;SPS30;64981;52.930;9.266;2023-12-20T07:55:34;7.26;6.82;5.93;4.58;36.60;36.53;36.30;35.15;28.80;0.64
76200;SPS30;64981;52.930;9.266;2023-12-20T07:58:00;6.95;6.52;5.68;4.38;35.04;34.97;34.75;33.65;27.57;0.63
76200;SPS30;64981;52.930;9.266;2023-12-20T08:00:26;7.65;7.21;6.33;4.97;39.68;39.62;39.39;38.23;31.50;0.64
76200;SPS30;64981;52.930;9.266;2023-12-20T08:02:52;7.28;6.82;5.91;4.53;36.24;36.17;35.93;34.75;28.41;0.66
76200;SPS30;64981;52.930;9.266;2023-12-20T08:05:17;7.37;6.90;5.97;4.55;36.41;36.34;36.09;34.88;28.46;0.67
76200;SPS30;64981;52.930;9.266;2023-12-20T08:07:43;7.04;6.54;5.54;4.08;32.59;32.52;32.26;30.99;24.94;0.70
76200;SPS30;64981;52.930;9.266;2023-12-20T08:10:09;7.06;6.58;5.62;4.20;33.58;33.51;33.26;32.03;25.93;0.68
76200;SPS30;64981;52.930;9.266;2023-12-20T08:12:35;7.54;7.00;5.93;4.35;34.79;34.71;34.44;33.06;26.59;0.69
76200;SPS30;64981;52.930;9.266;2023-12-20T08:15:01;8.53;7.95;6.78;5.05;40.35;40.27;39.96;38.47;31.10;0.70
76200;SPS30;64981;52.930;9.266;2023-12-20T08:17:27;7.40;6.95;6.05;4.68;37.38;37.32;37.08;35.91;29.43;0.67
76200;SPS30;64981;52.930;9.266;2023-12-20T08:19:53;6.80;6.34;5.42;4.05;32.35;32.28;32.04;30.86;24.98;0.69
76200;SPS30;64981;52.930;9.266;2023-12-20T08:22:18;7.41;6.85;5.75;4.16;33.24;33.16;32.88;31.48;25.16;0.70
76200;SPS30;64981;52.930;9.266;2023-12-20T08:24:44;7.84;7.21;5.95;4.17;33.35;33.26;32.94;31.36;24.74;0.72
76200;SPS30;64981;52.930;9.266;2023-12-20T08:27:10;7.83;7.22;5.99;4.24;33.90;33.81;33.49;31.95;25.31;0.71
76200;SPS30;64981;52.930;9.266;2023-12-20T08:29:35;7.15;6.60;5.52;3.96;31.69;31.62;31.34;29.97;23.88;0.71
76200;SPS30;64981;52.930;9.266;2023-12-20T08:32:01;6.55;6.09;5.18;3.85;30.74;30.67;30.44;29.28;23.63;0.69
76200;SPS30;64981;52.930;9.266;2023-12-20T08:34:27;7.25;6.70;5.61;4.04;32.34;32.26;31.98;30.60;24.43;0.71
76200;SPS30;64981;52.930;9.266;2023-12-20T08:36:52;7.70;7.09;5.88;4.14;33.13;33.04;32.73;31.20;24.68;0.71
76200;SPS30;64981;52.930;9.266;2023-12-20T08:39:18;7.95;7.27;5.92;4.03;32.23;32.14;31.79;30.11;23.45;0.74
76200;SPS30;64981;52.930;9.266;2023-12-20T08:41:44;8.56;7.83;6.39;4.35;34.82;34.72;34.34;32.54;25.36;0.75
76200;SPS30;64981;52.930;9.266;2023-12-20T08:44:10;7.25;6.71;5.63;4.06;32.49;32.41;32.13;30.76;24.57;0.71
76200;SPS30;64981;52.930;9.266;2023-12-20T08:46:36;8.28;7.66;6.42;4.63;36.99;36.90;36.58;35.01;27.94;0.72
76200;SPS30;64981;52.930;9.266;2023-12-20T08:49:02;8.49;7.86;6.59;4.77;38.13;38.04;37.72;36.12;28.87;0.71
76200;SPS30;64981;52.930;9.266;2023-12-20T08:51:28;8.55;7.87;6.53;4.61;36.88;36.79;36.44;34.75;27.51;0.71
76200;SPS30;64981;52.930;9.266;2023-12-20T08:53:54;7.86;7.28;6.12;4.43;35.46;35.37;35.07;33.60;26.88;0.68
76200;SPS30;64981;52.930;9.266;2023-12-20T08:56:20;7.30;6.78;5.73;4.20;33.56;33.48;33.21;31.88;25.61;0.69
76200;SPS30;64981;52.930;9.266;2023-12-20T08:58:45;7.15;6.58;5.46;3.85;30.77;30.69;30.40;28.98;22.93;0.72
76200;SPS30;64981;52.930;9.266;2023-12-20T09:01:13;7.06;6.53;5.48;3.96;31.62;31.55;31.28;29.94;23.91;0.72
76200;SPS30;64981;52.930;9.266;2023-12-20T09:03:39;6.30;5.87;5.01;3.74;29.90;29.84;29.62;28.51;23.07;0.70
76200;SPS30;64981;52.930;9.266;2023-12-20T09:06:05;6.88;6.38;5.36;3.89;31.11;31.04;30.78;29.49;23.60;0.71